createdAt,value
2018-02-13T00:01:50.146Z,58.76
2018-02-13T00:04:18.564Z,59.40
2018-02-13T00:06:47.398Z,57.78
2018-02-13T00:09:15.815Z,54.96
2018-02-13T00:11:44.229Z,54.42
2018-02-13T00:14:12.634Z,58.54
2018-02-13T00:16:41.029Z,58.27
2018-02-13T00:19:09.470Z,56.09
2018-02-13T00:21:37.895Z,55.57
2018-02-13T00:24:06.307Z,56.49
2018-02-13T00:26:34.696Z,56.42
2018-02-13T00:29:03.104Z,58.19
2018-02-13T00:31:31.557Z,56.71
2018-02-13T00:33:59.961Z,56.25
2018-02-13T00:36:28.325Z,58.95
2018-02-13T00:38:56.722Z,59.60
2018-02-13T00:41:25.156Z,55.66
2018-02-13T00:43:53.591Z,56.92
2018-02-13T00:46:21.970Z,56.47
2018-02-13T00:48:51.054Z,54.86
2018-02-13T00:51:19.466Z,54.55
2018-02-13T00:53:47.865Z,55.10
2018-02-13T00:56:16.275Z,55.28
2018-02-13T00:58:44.671Z,54.93
2018-02-13T01:01:13.129Z,53.86
2018-02-13T01:03:41.588Z,53.21
2018-02-13T01:06:10.031Z,52.74
2018-02-13T01:08:38.400Z,52.82
2018-02-13T01:11:06.823Z,52.72
2018-02-13T01:13:35.289Z,52.70
2018-02-13T01:16:03.759Z,52.93
2018-02-13T01:18:32.170Z,53.13
2018-02-13T01:21:00.575Z,54.03
2018-02-13T01:23:28.974Z,53.88
2018-02-13T01:25:57.428Z,55.01
2018-02-13T01:28:25.842Z,54.64
2018-02-13T01:30:54.593Z,54.59
2018-02-13T01:33:23.028Z,54.30
2018-02-13T01:35:51.436Z,54.65
2018-02-13T01:38:19.841Z,54.42
2018-02-13T01:40:48.265Z,54.23
2018-02-13T01:43:16.722Z,53.80
2018-02-13T01:45:45.129Z,54.11
2018-02-13T01:48:13.532Z,53.74
2018-02-13T01:50:41.949Z,54.13
2018-02-13T01:53:10.351Z,53.62
2018-02-13T01:55:38.900Z,53.77
2018-02-13T01:58:07.314Z,55.06
2018-02-13T02:00:35.789Z,54.69
2018-02-13T02:03:04.205Z,54.52
2018-02-13T02:05:32.741Z,54.54
2018-02-13T02:08:01.107Z,54.78
2018-02-13T02:10:29.516Z,55.25
2018-02-13T02:12:57.988Z,54.27
2018-02-13T02:15:26.494Z,55.09
2018-02-13T02:17:54.894Z,55.35
2018-02-13T02:20:23.272Z,55.56
2018-02-13T02:22:51.787Z,55.94
2018-02-13T02:25:20.329Z,54.68
2018-02-13T02:27:48.726Z,54.83
2018-02-13T02:30:17.140Z,56.73
2018-02-13T02:32:45.617Z,59.19
2018-02-13T02:35:14.010Z,61.63
2018-02-13T02:37:42.756Z,62.24
2018-02-13T02:40:11.157Z,60.94
2018-02-13T02:42:51.304Z,60.49
2018-02-13T02:45:19.707Z,57.00
2018-02-13T02:47:48.111Z,56.57
2018-02-13T02:50:16.531Z,55.16
2018-02-13T02:52:44.930Z,54.64
2018-02-13T02:55:13.486Z,55.19
2018-02-13T02:57:41.915Z,54.87
2018-02-13T03:00:10.319Z,54.13
2018-02-13T03:02:38.717Z,54.28
2018-02-13T03:05:07.105Z,55.65
2018-02-13T03:07:35.582Z,54.63
2018-02-13T03:10:03.996Z,55.41
2018-02-13T03:12:32.377Z,54.46
2018-02-13T03:15:00.794Z,54.81
2018-02-13T03:17:29.171Z,55.24
2018-02-13T03:19:57.726Z,56.53
2018-02-13T03:22:26.128Z,55.99
2018-02-13T03:24:54.547Z,56.56
2018-02-13T03:27:23.037Z,55.56
2018-02-13T03:29:51.417Z,55.20
2018-02-13T03:32:19.857Z,55.90
2018-02-13T03:34:48.331Z,55.34
2018-02-13T03:37:16.796Z,55.46
2018-02-13T03:39:45.232Z,55.34
2018-02-13T03:42:13.622Z,54.56
2018-02-13T03:44:42.093Z,55.14
2018-02-13T03:47:10.520Z,54.32
2018-02-13T03:49:39.087Z,55.01
2018-02-13T03:52:07.497Z,55.11
2018-02-13T03:54:55.606Z,55.63
2018-02-13T03:57:23.990Z,55.50
2018-02-13T03:59:52.431Z,55.03
2018-02-13T04:02:20.913Z,55.32
2018-02-13T04:04:49.302Z,55.34
2018-02-13T04:07:17.705Z,54.87
2018-02-13T04:09:46.159Z,55.26
2018-02-13T04:12:14.554Z,54.33
2018-02-13T04:14:43.324Z,55.63
2018-02-13T04:17:11.730Z,56.17
2018-02-13T04:19:40.120Z,56.00
2018-02-13T04:22:08.612Z,55.93
2018-02-13T04:24:36.993Z,55.28
2018-02-13T04:27:05.474Z,56.18
2018-02-13T04:29:33.877Z,56.16
2018-02-13T04:32:02.266Z,55.93
2018-02-13T04:34:30.728Z,55.19
2018-02-13T04:36:59.149Z,56.35
2018-02-13T04:39:27.604Z,56.28
2018-02-13T04:41:55.999Z,55.74
2018-02-13T04:44:24.466Z,56.06
2018-02-13T04:46:52.888Z,55.67
2018-02-13T04:49:21.271Z,55.87
2018-02-13T04:51:49.746Z,56.01
2018-02-13T04:54:18.139Z,55.73
2018-02-13T04:56:46.509Z,56.34
2018-02-13T04:59:14.928Z,56.43
2018-02-13T05:01:43.329Z,55.94
2018-02-13T05:04:11.863Z,55.39
2018-02-13T05:06:40.255Z,55.66
2018-02-13T05:09:08.647Z,55.31
2018-02-13T05:11:37.046Z,55.74
2018-02-13T05:14:05.444Z,55.51
2018-02-13T05:16:34.831Z,55.58
2018-02-13T05:19:03.230Z,55.68
2018-02-13T05:21:31.638Z,56.27
2018-02-13T05:24:00.029Z,56.20
2018-02-13T05:26:28.404Z,56.13
2018-02-13T05:28:56.901Z,55.35
2018-02-13T05:31:25.305Z,57.17
2018-02-13T05:33:53.706Z,56.26
2018-02-13T05:36:22.090Z,55.39
2018-02-13T05:38:50.487Z,55.11
2018-02-13T05:41:18.927Z,55.53
2018-02-13T05:43:47.339Z,54.34
2018-02-13T05:46:15.752Z,55.11
2018-02-13T05:48:44.258Z,55.50
2018-02-13T05:51:12.683Z,55.57
2018-02-13T05:53:41.175Z,60.23
2018-02-13T05:56:09.564Z,60.28
2018-02-13T05:58:37.950Z,58.86
2018-02-13T06:01:06.431Z,57.16
2018-02-13T06:03:34.822Z,57.61
2018-02-13T06:06:03.286Z,56.80
2018-02-13T06:08:31.707Z,55.32
2018-02-13T06:11:00.131Z,56.12
2018-02-13T06:13:28.545Z,55.77
2018-02-13T06:15:56.943Z,56.16
2018-02-13T06:18:25.404Z,57.66
2018-02-13T06:20:53.849Z,55.82
2018-02-13T06:23:22.202Z,56.08
2018-02-13T06:25:50.605Z,56.55
2018-02-13T06:28:18.977Z,56.73
2018-02-13T06:30:47.478Z,60.31
2018-02-13T06:33:15.864Z,57.96
2018-02-13T06:35:44.332Z,56.23
2018-02-13T06:38:12.749Z,55.39
2018-02-13T06:40:41.315Z,54.81
2018-02-13T06:43:09.732Z,55.06
2018-02-13T06:45:38.144Z,55.19
2018-02-13T06:48:06.603Z,54.50
2018-02-13T06:50:35.108Z,54.79
2018-02-13T06:53:03.482Z,55.55
2018-02-13T06:55:31.893Z,56.91
2018-02-13T06:58:00.436Z,56.01
2018-02-13T07:00:28.841Z,56.55
2018-02-13T07:02:57.257Z,57.21
2018-02-13T07:05:25.838Z,57.08
2018-02-13T07:07:54.329Z,58.39
2018-02-13T07:10:23.072Z,60.44
2018-02-13T07:12:51.473Z,62.10
2018-02-13T07:15:19.914Z,59.55
2018-02-13T07:17:48.329Z,59.04
2018-02-13T07:20:16.861Z,59.24
2018-02-13T07:22:45.311Z,60.26
2018-02-13T07:25:13.697Z,62.15
2018-02-13T07:27:42.143Z,59.50
2018-02-13T07:30:10.643Z,61.14
2018-02-13T07:32:39.061Z,64.23
2018-02-13T07:35:07.520Z,63.48
2018-02-13T07:37:35.914Z,62.75
2018-02-13T07:40:04.357Z,63.97
2018-02-13T07:42:32.794Z,61.51
2018-02-13T07:45:01.577Z,61.81
2018-02-13T07:47:31.354Z,61.68
2018-02-13T07:49:59.935Z,59.49
2018-02-13T07:52:28.775Z,60.17
2018-02-13T07:54:57.372Z,61.75
2018-02-13T07:57:25.902Z,61.08
2018-02-13T07:59:54.314Z,62.00
2018-02-13T08:02:22.703Z,59.86
2018-02-13T08:04:51.249Z,57.14
2018-02-13T08:07:19.635Z,57.08
2018-02-13T08:09:48.022Z,56.74
2018-02-13T08:12:16.547Z,54.97
2018-02-13T08:14:44.947Z,53.00
2018-02-13T08:17:13.486Z,53.80
2018-02-13T08:19:41.888Z,52.57
2018-02-13T08:22:10.267Z,51.60
2018-02-13T08:24:38.678Z,51.70
2018-02-13T08:27:07.087Z,52.59
2018-02-13T08:29:35.563Z,51.77
2018-02-13T08:32:03.960Z,50.52
2018-02-13T08:34:32.352Z,51.37
2018-02-13T08:37:00.755Z,48.63
2018-02-13T08:39:29.145Z,48.61
2018-02-13T08:41:57.635Z,51.15
2018-02-13T08:44:26.044Z,49.04
2018-02-13T08:46:54.460Z,48.50
2018-02-13T08:49:22.982Z,47.06
2018-02-13T08:51:51.380Z,47.60
2018-02-13T08:54:20.022Z,47.60
2018-02-13T08:56:48.432Z,49.17
2018-02-13T08:59:16.926Z,48.88
2018-02-13T09:01:45.332Z,46.46
2018-02-13T09:04:13.738Z,47.73
2018-02-13T09:06:42.511Z,45.03
2018-02-13T09:09:10.932Z,44.78
2018-02-13T09:11:39.312Z,43.32
2018-02-13T09:14:07.694Z,41.98
2018-02-13T09:16:36.114Z,40.04
2018-02-13T09:19:04.564Z,39.94
2018-02-13T09:21:32.945Z,41.46
2018-02-13T09:24:01.334Z,41.91
2018-02-13T09:26:29.765Z,41.08
2018-02-13T09:28:58.145Z,40.10
2018-02-13T09:31:26.623Z,38.46
2018-02-13T09:33:55.016Z,38.37
2018-02-13T09:36:23.422Z,36.19
2018-02-13T09:38:51.809Z,37.36
2018-02-13T09:41:20.207Z,36.44
2018-02-13T09:46:23.542Z,35.18
2018-02-13T09:48:52.073Z,35.26
2018-02-13T09:51:20.491Z,36.00
2018-02-13T09:53:48.900Z,36.07
2018-02-13T09:56:17.403Z,36.56
2018-02-13T09:58:45.774Z,36.33
2018-02-13T10:01:14.247Z,35.69
2018-02-13T10:03:42.725Z,35.10
2018-02-13T10:06:11.159Z,34.15
2018-02-13T10:08:39.582Z,32.97
2018-02-13T10:11:08.019Z,32.88
2018-02-13T10:13:36.579Z,33.07
2018-02-13T10:16:05.004Z,33.28
2018-02-13T10:18:33.486Z,33.19
2018-02-13T10:21:01.899Z,32.12
2018-02-13T10:23:30.359Z,30.62
2018-02-13T10:25:58.952Z,30.86
2018-02-13T10:28:27.418Z,31.27
2018-02-13T10:30:55.824Z,32.79
2018-02-13T10:33:24.236Z,33.79
2018-02-13T10:35:52.630Z,33.61
2018-02-13T10:38:21.214Z,33.42
2018-02-13T10:40:49.678Z,31.08
2018-02-13T10:43:18.093Z,32.64
2018-02-13T10:45:46.500Z,30.78
2018-02-13T10:48:14.898Z,31.31
2018-02-13T10:50:43.373Z,32.65
2018-02-13T10:53:11.761Z,32.18
2018-02-13T10:55:40.167Z,31.41
2018-02-13T10:58:08.571Z,30.67
2018-02-13T11:00:44.130Z,31.52
2018-02-13T11:03:12.531Z,31.80
2018-02-13T11:05:41.019Z,33.87
2018-02-13T11:08:09.865Z,35.63
2018-02-13T11:10:38.295Z,36.91
2018-02-13T11:13:06.697Z,37.25
2018-02-13T11:15:35.098Z,38.06
2018-02-13T11:18:03.525Z,39.07
2018-02-13T11:20:32.071Z,39.53
2018-02-13T11:23:00.545Z,38.99
2018-02-13T11:25:28.946Z,40.06
2018-02-13T11:27:57.451Z,40.08
2018-02-13T11:30:25.875Z,40.58
2018-02-13T11:32:54.381Z,40.86
2018-02-13T11:35:22.802Z,42.65
2018-02-13T11:37:51.309Z,43.80
2018-02-13T11:40:19.803Z,45.52
2018-02-13T11:42:48.214Z,43.73
2018-02-13T11:45:16.783Z,43.14
2018-02-13T11:47:45.189Z,43.80
2018-02-13T11:50:13.582Z,44.85
2018-02-13T11:52:42.007Z,42.98
2018-02-13T11:55:10.419Z,44.85
2018-02-13T11:57:38.962Z,46.83
2018-02-13T12:00:07.822Z,44.54
2018-02-13T12:02:36.219Z,43.49
2018-02-13T12:05:04.674Z,39.42
2018-02-13T12:07:33.073Z,36.48
2018-02-13T12:10:01.550Z,35.57
2018-02-13T12:12:29.978Z,34.59
2018-02-13T12:14:58.520Z,32.28
2018-02-13T12:17:26.926Z,29.78
2018-02-13T12:19:55.343Z,29.57
2018-02-13T12:22:23.817Z,31.44
2018-02-13T12:24:52.205Z,30.82
2018-02-13T12:27:20.617Z,29.50
2018-02-13T12:29:49.034Z,27.20
2018-02-13T12:32:17.427Z,26.26
2018-02-13T12:34:45.884Z,26.76
2018-02-13T12:37:14.296Z,28.02
2018-02-13T12:42:36.839Z,27.12
2018-02-13T12:45:05.454Z,28.36
2018-02-13T12:47:33.877Z,29.90
2018-02-13T12:50:16.204Z,30.54
2018-02-13T12:52:44.847Z,32.99
2018-02-13T12:55:13.351Z,32.76
2018-02-13T12:57:41.762Z,33.60
2018-02-13T13:00:10.198Z,32.74
2018-02-13T13:02:38.615Z,30.91
2018-02-13T13:05:07.974Z,31.52
2018-02-13T13:07:36.406Z,33.91
2018-02-13T13:10:05.040Z,36.33
2018-02-13T13:12:33.443Z,38.23
2018-02-13T13:15:01.837Z,38.25
2018-02-13T13:17:30.261Z,42.52
2018-02-13T13:19:58.648Z,42.41
2018-02-13T13:22:27.122Z,44.09
2018-02-13T13:24:55.537Z,43.96
2018-02-13T13:27:23.961Z,42.99
2018-02-13T13:29:52.400Z,42.55
2018-02-13T13:32:20.795Z,41.63
2018-02-13T13:34:49.350Z,43.50
2018-02-13T13:37:17.805Z,44.37
2018-02-13T13:39:46.257Z,44.18
2018-02-13T13:42:14.695Z,44.71
2018-02-13T13:44:43.099Z,43.98
2018-02-13T13:47:11.506Z,44.95
2018-02-13T13:49:39.898Z,44.57
2018-02-13T13:52:08.658Z,43.55
2018-02-13T13:54:37.062Z,43.77
2018-02-13T13:57:05.462Z,43.72
2018-02-13T13:59:33.871Z,43.98
2018-02-13T14:02:02.273Z,42.13
2018-02-13T14:04:30.828Z,44.09
2018-02-13T14:07:00.601Z,44.96
2018-02-13T14:09:29.036Z,44.30
2018-02-13T14:11:57.454Z,46.72
2018-02-13T14:14:26.003Z,46.19
2018-02-13T14:16:54.417Z,46.14
2018-02-13T14:19:22.900Z,47.94
2018-02-13T14:21:51.381Z,46.83
2018-02-13T14:24:19.776Z,47.95
2018-02-13T14:26:48.206Z,47.31
2018-02-13T14:29:16.592Z,48.27
2018-02-13T14:31:45.013Z,49.41
2018-02-13T14:34:13.469Z,47.81
2018-02-13T14:36:41.963Z,44.81
2018-02-13T14:39:10.399Z,45.67
2018-02-13T14:41:38.799Z,45.85
2018-02-13T14:44:07.223Z,44.69
2018-02-13T14:46:35.752Z,44.85
2018-02-13T14:49:04.167Z,45.29
2018-02-13T14:51:32.569Z,44.36
2018-02-13T14:54:00.952Z,43.42
2018-02-13T14:56:29.363Z,42.38
2018-02-13T14:58:57.848Z,42.88
2018-02-13T15:01:26.366Z,44.18
2018-02-13T15:03:54.773Z,43.66
2018-02-13T15:06:23.182Z,44.98
2018-02-13T15:08:51.581Z,43.98
2018-02-13T15:11:20.038Z,42.92
2018-02-13T15:13:48.446Z,43.55
2018-02-13T15:16:16.830Z,42.56
2018-02-13T15:18:45.267Z,42.60
2018-02-13T15:21:13.652Z,42.78
2018-02-13T15:23:42.079Z,42.33
2018-02-13T15:26:10.666Z,44.53
2018-02-13T15:28:39.254Z,43.81
2018-02-13T15:31:07.707Z,44.52
2018-02-13T15:33:36.048Z,44.67
2018-02-13T15:36:04.448Z,43.56
2018-02-13T15:38:32.852Z,43.47
2018-02-13T15:41:01.413Z,42.61
2018-02-13T15:43:29.833Z,43.06
2018-02-13T15:45:58.212Z,44.98
2018-02-13T15:48:26.607Z,44.23
2018-02-13T15:50:54.986Z,46.01
2018-02-13T15:53:23.462Z,44.78
2018-02-13T15:55:51.867Z,44.83
2018-02-13T15:58:20.282Z,45.40
2018-02-13T16:00:48.657Z,46.83
2018-02-13T16:03:17.072Z,47.19
2018-02-13T16:05:45.553Z,47.52
2018-02-13T16:08:13.939Z,47.09
2018-02-13T16:10:42.383Z,49.14
2018-02-13T16:13:10.801Z,48.33
2018-02-13T16:15:39.217Z,47.52
2018-02-13T16:18:07.625Z,47.51
2018-02-13T16:20:36.042Z,47.58
2018-02-13T16:23:04.502Z,47.80
2018-02-13T16:25:32.887Z,46.95
2018-02-13T16:28:01.413Z,47.80
2018-02-13T16:30:29.827Z,47.12
2018-02-13T16:32:58.228Z,47.06
2018-02-13T16:35:26.865Z,47.98
2018-02-13T16:37:55.265Z,48.39
2018-02-13T16:40:23.673Z,48.15
2018-02-13T16:42:53.980Z,46.71
2018-02-13T16:45:22.382Z,47.68
2018-02-13T16:47:50.770Z,47.50
2018-02-13T16:50:19.166Z,46.91
2018-02-13T16:52:47.666Z,46.63
2018-02-13T16:55:16.046Z,46.58
2018-02-13T16:57:44.612Z,46.95
2018-02-13T17:00:13.004Z,47.26
2018-02-13T17:02:41.414Z,47.95
2018-02-13T17:05:09.897Z,47.78
2018-02-13T17:07:38.305Z,50.56
2018-02-13T17:10:06.770Z,47.01
2018-02-13T17:12:35.219Z,46.90
2018-02-13T17:15:03.679Z,46.14
2018-02-13T17:17:32.097Z,47.69
2018-02-13T17:20:00.522Z,47.72
2018-02-13T17:22:28.995Z,47.79
2018-02-13T17:24:57.418Z,50.45
2018-02-13T17:27:25.797Z,50.91
2018-02-13T17:29:54.181Z,50.83
2018-02-13T17:32:22.588Z,50.39
2018-02-13T17:34:51.060Z,49.07
2018-02-13T17:37:20.604Z,50.01
2018-02-13T17:39:49.091Z,47.10
2018-02-13T17:42:17.473Z,48.66
2018-02-13T17:44:46.103Z,47.92
2018-02-13T17:47:14.702Z,48.85
2018-02-13T17:49:43.119Z,49.35
2018-02-13T17:52:11.512Z,51.49
2018-02-13T17:54:39.913Z,48.97
2018-02-13T17:57:08.317Z,47.77
2018-02-13T17:59:36.898Z,51.18
2018-02-13T18:02:05.398Z,49.75
2018-02-13T18:04:33.781Z,51.92
2018-02-13T18:07:02.169Z,50.62
2018-02-13T18:09:30.557Z,49.78
2018-02-13T18:11:59.122Z,48.83
2018-02-13T18:14:27.519Z,49.76
2018-02-13T18:16:55.950Z,50.92
2018-02-13T18:19:24.364Z,50.59
2018-02-13T18:21:52.782Z,49.74
2018-02-13T18:24:21.997Z,49.59
2018-02-13T18:26:50.474Z,49.74
2018-02-13T18:29:19.063Z,50.85
2018-02-13T18:31:47.502Z,50.51
2018-02-13T18:34:15.962Z,50.63
2018-02-13T18:36:44.369Z,50.11
2018-02-13T18:39:12.778Z,50.91
2018-02-13T18:41:41.523Z,49.39
2018-02-13T18:44:09.914Z,49.97
2018-02-13T18:46:38.460Z,50.50
2018-02-13T18:49:06.856Z,51.67
2018-02-13T18:51:35.249Z,50.21
2018-02-13T18:54:03.796Z,49.81
2018-02-13T18:56:32.195Z,51.01
2018-02-13T18:59:00.612Z,49.98
2018-02-13T19:01:29.013Z,51.31
2018-02-13T19:03:57.414Z,50.93
2018-02-13T19:06:25.982Z,50.76
2018-02-13T19:08:54.351Z,52.13
2018-02-13T19:11:22.744Z,54.22
2018-02-13T19:13:51.246Z,54.55
2018-02-13T19:16:19.644Z,52.57
2018-02-13T19:18:48.693Z,52.99
2018-02-13T19:21:17.224Z,53.64
2018-02-13T19:23:45.703Z,51.95
2018-02-13T19:26:14.143Z,53.80
2018-02-13T19:28:42.542Z,54.88
2018-02-13T19:31:10.963Z,55.37
2018-02-13T19:33:39.439Z,55.16
2018-02-13T19:36:07.907Z,54.07
2018-02-13T19:38:36.328Z,51.19
2018-02-13T19:41:04.793Z,54.24
2018-02-13T19:43:33.194Z,53.59
2018-02-13T19:46:01.726Z,54.31
2018-02-13T19:48:30.678Z,54.28
2018-02-13T19:50:59.130Z,53.72
2018-02-13T19:53:27.560Z,54.96
2018-02-13T19:55:55.952Z,55.13
2018-02-13T19:58:24.341Z,53.91
2018-02-13T20:00:52.777Z,53.68
2018-02-13T20:03:21.248Z,54.40
2018-02-13T20:05:49.643Z,54.37
2018-02-13T20:08:18.106Z,52.41
2018-02-13T20:10:49.179Z,55.27
2018-02-13T20:13:17.683Z,53.36
2018-02-13T20:15:46.090Z,53.27
2018-02-13T20:18:14.503Z,53.09
2018-02-13T20:20:42.913Z,53.68
2018-02-13T20:23:11.317Z,52.94
2018-02-13T20:25:39.702Z,53.35
2018-02-13T20:28:08.094Z,53.05
2018-02-13T20:30:36.575Z,53.29
2018-02-13T20:33:04.972Z,53.00
2018-02-13T20:35:33.464Z,52.48
2018-02-13T20:38:01.858Z,54.07
2018-02-13T20:40:31.007Z,53.75
2018-02-13T20:42:59.430Z,51.00
2018-02-13T20:45:27.834Z,50.60
2018-02-13T20:47:57.021Z,50.86
2018-02-13T20:50:25.412Z,52.36
2018-02-13T20:52:53.805Z,51.39
2018-02-13T20:55:22.236Z,51.88
2018-02-13T20:57:50.639Z,51.19
2018-02-13T21:00:19.119Z,52.83
2018-02-13T21:02:47.542Z,50.67
2018-02-13T21:05:15.938Z,50.74
2018-02-13T21:07:44.359Z,50.95
2018-02-13T21:10:12.787Z,50.27
2018-02-13T21:12:41.376Z,51.11
2018-02-13T21:15:09.850Z,51.00
2018-02-13T21:17:38.240Z,50.62
2018-02-13T21:20:21.775Z,51.89
2018-02-13T21:22:50.239Z,50.18
2018-02-13T21:25:18.652Z,51.74
2018-02-13T21:27:47.095Z,52.62
2018-02-13T21:30:15.528Z,50.94
2018-02-13T21:32:43.923Z,51.36
2018-02-13T21:35:12.433Z,51.43
2018-02-13T21:37:40.831Z,52.69
2018-02-13T21:40:09.230Z,51.79
2018-02-13T21:42:37.651Z,51.50
2018-02-13T21:45:06.302Z,50.33
2018-02-13T21:47:34.726Z,51.41
2018-02-13T21:50:03.125Z,52.23
2018-02-13T21:52:31.531Z,51.12
2018-02-13T21:54:59.947Z,52.42
2018-02-13T21:57:28.439Z,52.59
2018-02-13T21:59:56.815Z,52.34
2018-02-13T22:02:25.215Z,52.04
2018-02-13T22:04:53.617Z,51.47
2018-02-13T22:07:22.104Z,51.33
2018-02-13T22:09:50.837Z,52.36
2018-02-13T22:12:19.232Z,51.52
2018-02-13T22:14:47.635Z,51.64
2018-02-13T22:17:16.014Z,52.41
2018-02-13T22:19:44.389Z,50.78
2018-02-13T22:22:12.922Z,50.78
2018-02-13T22:24:41.328Z,51.38
2018-02-13T22:27:09.726Z,51.05
2018-02-13T22:29:38.094Z,53.34
2018-02-13T22:32:06.622Z,51.78
2018-02-13T22:34:35.049Z,51.21
2018-02-13T22:37:03.428Z,50.74
2018-02-13T22:39:31.847Z,51.29
2018-02-13T22:42:00.350Z,51.68
2018-02-13T22:44:28.743Z,50.90
2018-02-13T22:46:57.280Z,51.83
2018-02-13T22:49:25.677Z,52.89
2018-02-13T22:51:54.082Z,51.83
2018-02-13T22:54:22.481Z,51.63
2018-02-13T22:56:50.876Z,52.84
2018-02-13T22:59:19.373Z,52.59
2018-02-13T23:01:47.871Z,53.60
2018-02-13T23:04:16.262Z,55.00
2018-02-13T23:06:44.754Z,56.64
2018-02-13T23:09:13.375Z,53.72
2018-02-13T23:11:42.277Z,52.40
2018-02-13T23:14:10.690Z,54.14
2018-02-13T23:16:39.092Z,53.21
2018-02-13T23:19:07.572Z,54.21
2018-02-13T23:21:36.031Z,52.64
2018-02-13T23:24:04.504Z,55.65
2018-02-13T23:26:32.892Z,53.79
2018-02-13T23:29:01.296Z,53.95
2018-02-13T23:31:29.839Z,54.27
2018-02-13T23:33:58.300Z,52.60
2018-02-13T23:36:26.659Z,54.40
2018-02-13T23:38:55.092Z,54.14
2018-02-13T23:41:23.502Z,54.07
2018-02-13T23:43:51.991Z,54.30
2018-02-13T23:46:20.406Z,53.69
2018-02-13T23:48:48.884Z,55.97
2018-02-13T23:51:17.279Z,55.93
2018-02-13T23:53:45.751Z,55.73
2018-02-13T23:56:14.139Z,54.60
2018-02-13T23:58:42.529Z,52.92
